createdAt,value
2022-10-11T00:00:59.692Z,97636.94
2022-10-11T00:11:10.619Z,97644.38
2022-10-11T00:21:15.167Z,97646.84
2022-10-11T00:31:17.697Z,97655.34
2022-10-11T00:41:19.797Z,97654.34
2022-10-11T00:51:36.296Z,97650.00
2022-10-11T01:01:38.609Z,97652.84
2022-10-11T01:11:43.936Z,97669.47
2022-10-11T01:22:01.394Z,97673.88
2022-10-11T01:32:22.898Z,97695.28
2022-10-11T01:42:26.238Z,97702.66
2022-10-11T01:52:33.948Z,97713.16
2022-10-11T02:02:55.929Z,97722.41
2022-10-11T02:13:06.240Z,97725.84
2022-10-11T02:23:31.441Z,97754.19
2022-10-11T02:33:39.163Z,97758.22
2022-10-11T02:43:47.288Z,97774.63
2022-10-11T02:53:49.444Z,97785.22
2022-10-11T03:03:51.594Z,97790.81
2022-10-11T03:13:53.857Z,97806.94
2022-10-11T03:23:55.996Z,97818.13
2022-10-11T03:33:58.101Z,97827.97
2022-10-11T03:44:00.227Z,97843.47
2022-10-11T03:54:02.597Z,97851.09
2022-10-11T04:04:05.731Z,97860.66
2022-10-11T04:14:07.823Z,97863.38
2022-10-11T04:24:11.617Z,97872.66
2022-10-11T04:34:13.991Z,97880.25
2022-10-11T04:44:16.077Z,97878.06
2022-10-11T04:54:18.166Z,97887.31
2022-10-11T05:04:20.306Z,97893.28
2022-10-11T05:14:22.413Z,97907.94
2022-10-11T05:24:24.467Z,97923.69
2022-10-11T05:34:27.131Z,97931.03
2022-10-11T05:44:29.236Z,97929.59
2022-10-11T05:54:31.619Z,97951.66
2022-10-11T06:04:37.295Z,97983.78
2022-10-11T06:14:39.853Z,97992.56
2022-10-11T06:24:41.960Z,98003.78
2022-10-11T06:34:44.055Z,98040.50
2022-10-11T06:44:46.339Z,98048.53
2022-10-11T06:54:48.460Z,98062.03
2022-10-11T07:04:50.554Z,98069.00
2022-10-11T07:14:52.716Z,98084.81
2022-10-11T07:24:54.989Z,98092.13
2022-10-11T07:34:57.042Z,98098.50
2022-10-11T07:44:59.376Z,98110.13
2022-10-11T07:55:01.462Z,98111.50
2022-10-11T08:05:03.845Z,98118.84
2022-10-11T08:15:06.540Z,98128.91
2022-10-11T08:25:08.727Z,98134.09
2022-10-11T08:35:10.845Z,98142.72
2022-10-11T08:45:32.888Z,98132.06
2022-10-11T08:55:49.387Z,98132.34
2022-10-11T09:06:06.799Z,98140.41
2022-10-11T09:16:37.116Z,98142.72
2022-10-11T09:26:59.886Z,98155.31
2022-10-11T09:37:14.449Z,98156.19
2022-10-11T09:47:24.195Z,98151.72
2022-10-11T09:57:30.157Z,98154.50
2022-10-11T10:07:34.412Z,98153.56
2022-10-11T10:17:36.664Z,98157.59
2022-10-11T10:27:38.752Z,98161.31
2022-10-11T10:37:52.728Z,98162.13
2022-10-11T10:47:57.786Z,98143.59
2022-10-11T10:58:09.767Z,98158.38
2022-10-11T11:08:20.631Z,98153.66
2022-10-11T11:18:31.576Z,98151.69
2022-10-11T11:28:58.443Z,98151.38
2022-10-11T11:39:04.836Z,98143.44
2022-10-11T11:49:38.063Z,98142.44
2022-10-11T12:00:02.135Z,98133.63
2022-10-11T12:10:29.766Z,98139.59
2022-10-11T12:20:38.088Z,98142.53
2022-10-11T12:30:47.147Z,98133.91
2022-10-11T12:40:53.432Z,98122.50
2022-10-11T12:51:05.075Z,98131.59
2022-10-11T13:01:17.780Z,98126.81
2022-10-11T13:11:24.782Z,98132.09
2022-10-11T13:21:36.357Z,98133.03
2022-10-11T13:31:41.240Z,98129.13
2022-10-11T13:41:43.488Z,98138.94
2022-10-11T13:51:59.227Z,98130.28
2022-10-11T14:02:04.693Z,98125.88
2022-10-11T14:12:25.940Z,98135.91
2022-10-11T14:22:28.646Z,98142.59
2022-10-11T14:32:33.355Z,98132.78
2022-10-11T14:42:35.534Z,98144.03
2022-10-11T14:52:37.632Z,98146.53
2022-10-11T15:02:39.707Z,98148.41
2022-10-11T15:12:41.882Z,98156.84
2022-10-11T15:22:44.271Z,98161.25
2022-10-11T15:32:47.215Z,98168.00
2022-10-11T15:42:50.864Z,98168.56
2022-10-11T15:52:53.110Z,98178.66
2022-10-11T16:02:56.432Z,98185.63
2022-10-11T16:12:58.714Z,98191.19
2022-10-11T16:23:00.793Z,98200.47
2022-10-11T16:33:03.160Z,98208.69
2022-10-11T16:43:07.904Z,98209.34
2022-10-11T16:53:10.341Z,98215.16
2022-10-11T17:03:12.549Z,98226.50
2022-10-11T17:13:14.818Z,98243.13
2022-10-11T17:23:17.254Z,98242.44
2022-10-11T17:33:19.523Z,98242.91
2022-10-11T17:43:21.662Z,98240.72
2022-10-11T17:53:24.293Z,98242.53
2022-10-11T18:03:26.380Z,98238.84
2022-10-11T18:13:28.605Z,98240.56
2022-10-11T18:23:31.171Z,98252.59
2022-10-11T18:33:33.320Z,98245.72
2022-10-11T18:43:35.835Z,98250.19
2022-10-11T18:53:38.454Z,98245.34
2022-10-11T19:03:40.662Z,98249.59
2022-10-11T19:13:43.766Z,98253.03
2022-10-11T19:23:48.164Z,98255.34
2022-10-11T19:33:50.404Z,98247.50
2022-10-11T19:43:52.593Z,98250.25
2022-10-11T19:53:59.320Z,98260.88
2022-10-11T20:04:07.482Z,98260.25
2022-10-11T20:14:09.605Z,98260.72
2022-10-11T20:24:11.876Z,98266.31
2022-10-11T20:40:12.229Z,98263.47
2022-10-11T20:50:14.451Z,98264.56
2022-10-11T21:00:16.960Z,98277.56
2022-10-11T21:10:19.117Z,98274.50
2022-10-11T21:20:21.613Z,98276.13
2022-10-11T21:30:23.760Z,98273.88
2022-10-11T21:40:26.006Z,98271.38
2022-10-11T21:50:28.188Z,98274.03
2022-10-11T22:10:14.769Z,98273.19
2022-10-11T22:20:17.021Z,98282.25
2022-10-11T22:30:19.157Z,98277.31
2022-10-11T22:40:21.562Z,98273.53
2022-10-11T22:50:23.673Z,98276.84
2022-10-11T23:00:26.102Z,98263.16
2022-10-11T23:10:28.245Z,98273.84
2022-10-11T23:20:30.311Z,98276.53
2022-10-11T23:30:32.631Z,98285.66
2022-10-11T23:40:34.795Z,98285.69
2022-10-11T23:50:37.222Z,98283.03
